Time;durP1;ratioP1;P1;durP2;ratioP2;P2;SDS_P1;SDS_P2;PMS_P1;PMS_P2;Temp;Humidity;BMP_temperature;BMP_pressure;BME280_temperature;BME280_humidity;BME280_pressure;Samples;Min_cycle;Max_cycle;Signal;HPM_P1;HPM_P2
2021/04/26 00:00:34;;;;;;;10.53;5.50;;;11.20;48.40;;;;;;5034260;28;20029;-83
2021/04/26 00:03:00;;;;;;;8.37;5.30;;;11.10;48.40;;;;;;5034412;28;20033;-83
2021/04/26 00:05:27;;;;;;;8.60;5.50;;;11.10;48.60;;;;;;5031723;28;20028;-83
2021/04/26 00:07:56;;;;;;;10.07;5.30;;;11.10;48.80;;;;;;5050679;28;20128;-83
2021/04/26 00:10:24;;;;;;;8.33;5.30;;;11.00;48.90;;;;;;5032456;28;20038;-83
2021/04/26 00:12:50;;;;;;;10.37;5.37;;;11.00;48.90;;;;;;5035033;28;20029;-83
2021/04/26 00:15:25;;;;;;;10.57;6.33;;;11.00;48.90;;;;;;5033929;28;20388;-83
2021/04/26 00:17:51;;;;;;;8.43;5.40;;;11.00;49.10;;;;;;5042870;28;20117;-83
2021/04/26 00:20:21;;;;;;;11.50;5.97;;;11.00;49.10;;;;;;5035374;28;20450;-83
2021/04/26 00:22:47;;;;;;;9.10;5.40;;;10.90;49.30;;;;;;5031337;28;20033;-83
2021/04/26 00:25:14;;;;;;;11.00;5.83;;;10.90;49.40;;;;;;5033244;28;20039;-83
2021/04/26 00:27:40;;;;;;;11.50;5.90;;;10.80;49.20;;;;;;5033297;28;20508;-82
2021/04/26 00:30:10;;;;;;;9.90;5.90;;;10.80;49.10;;;;;;5029679;28;20049;-82
2021/04/26 00:32:36;;;;;;;10.73;5.50;;;10.80;49.30;;;;;;5033184;28;20033;-82
2021/04/26 00:35:03;;;;;;;10.87;5.30;;;10.80;49.40;;;;;;5034972;28;20030;-82
2021/04/26 00:37:28;;;;;;;10.07;5.70;;;10.70;49.70;;;;;;5033606;28;20035;-82
2021/04/26 00:39:54;;;;;;;9.77;5.77;;;10.70;49.80;;;;;;5032412;28;20702;-83
2021/04/26 00:42:20;;;;;;;12.20;6.00;;;10.60;50.00;;;;;;5035226;28;20091;-83
2021/04/26 00:44:46;;;;;;;10.70;6.20;;;10.60;50.10;;;;;;5034156;28;20036;-83
2021/04/26 00:47:11;;;;;;;7.60;5.20;;;10.60;50.30;;;;;;5023123;28;20030;-83
2021/04/26 00:49:37;;;;;;;9.13;5.80;;;10.60;50.40;;;;;;5028698;28;20026;-83
2021/04/26 00:52:03;;;;;;;10.10;5.60;;;10.60;50.20;;;;;;5034221;28;20033;-82
2021/04/26 00:54:29;;;;;;;7.43;5.47;;;10.60;50.40;;;;;;5032956;28;20029;-82
2021/04/26 00:56:55;;;;;;;10.97;6.33;;;10.50;50.40;;;;;;5032550;28;20090;-82
2021/04/26 00:59:21;;;;;;;9.90;5.97;;;10.50;50.70;;;;;;5026053;28;20029;-83
2021/04/26 01:01:47;;;;;;;10.20;5.37;;;10.60;50.80;;;;;;5032830;28;20041;-82
2021/04/26 01:04:13;;;;;;;13.23;5.87;;;10.60;50.60;;;;;;5021395;28;20041;-82
2021/04/26 01:06:40;;;;;;;7.97;5.40;;;10.70;50.40;;;;;;5021527;28;20041;-82
2021/04/26 01:09:05;;;;;;;11.30;6.07;;;10.70;50.10;;;;;;5032166;28;20041;-82
2021/04/26 01:12:02;;;;;;;9.90;6.43;;;10.70;50.20;;;;;;5028076;28;20043;-82
2021/04/26 01:14:41;;;;;;;14.73;6.70;;;10.70;50.60;;;;;;5014324;28;20401;-82
2021/04/26 01:17:21;;;;;;;14.53;7.30;;;10.60;50.90;;;;;;5035972;28;20056;-82
2021/04/26 01:20:25;;;;;;;12.70;7.00;;;10.60;51.10;;;;;;5031791;28;20480;-83
2021/04/26 01:23:09;;;;;;;12.20;6.97;;;10.60;51.20;;;;;;5031990;28;20447;-82
2021/04/26 01:25:35;;;;;;;11.37;6.90;;;10.50;51.60;;;;;;5029641;28;20029;-82
2021/04/26 01:28:19;;;;;;;9.53;5.90;;;10.50;51.70;;;;;;5032407;28;20103;-82
2021/04/26 01:30:54;;;;;;;10.97;7.10;;;10.40;52.00;;;;;;5051158;28;20911;-82
2021/04/26 01:33:27;;;;;;;15.77;7.03;;;10.30;52.20;;;;;;5028215;28;20072;-82
2021/04/26 01:35:58;;;;;;;11.57;7.77;;;10.30;52.90;;;;;;5034972;28;20060;-83
2021/04/26 01:38:39;;;;;;;15.17;7.03;;;10.20;52.50;;;;;;5052107;28;20024;-82
2021/04/26 01:41:06;;;;;;;13.13;7.63;;;10.20;52.70;;;;;;5025596;28;20032;-82
2021/04/26 01:43:34;;;;;;;14.50;6.57;;;10.20;52.60;;;;;;5035281;28;20185;-82
2021/04/26 01:46:02;;;;;;;9.03;5.73;;;10.10;52.50;;;;;;5035152;28;20028;-83
2021/04/26 01:48:30;;;;;;;14.50;6.10;;;9.90;52.50;;;;;;5040269;28;20106;-82
2021/04/26 01:50:57;;;;;;;11.97;6.90;;;9.80;52.60;;;;;;5052147;28;20044;-83
2021/04/26 01:53:25;;;;;;;10.00;6.07;;;9.90;52.60;;;;;;5048528;28;20031;-82
2021/04/26 01:55:55;;;;;;;12.50;6.43;;;9.80;52.50;;;;;;5052524;28;20107;-83
2021/04/26 01:58:22;;;;;;;10.13;6.13;;;9.90;52.70;;;;;;5034733;28;20052;-83
2021/04/26 02:00:48;;;;;;;9.03;6.60;;;9.90;52.90;;;;;;5035196;28;20029;-82
2021/04/26 02:03:18;;;;;;;10.63;6.60;;;9.90;52.90;;;;;;5051640;28;20103;-82
2021/04/26 02:05:45;;;;;;;9.93;6.70;;;10.00;52.70;;;;;;5047903;28;20049;-82
2021/04/26 02:08:13;;;;;;;11.13;5.67;;;10.00;52.30;;;;;;5045735;28;20076;-82
2021/04/26 02:10:39;;;;;;;9.80;5.87;;;10.10;52.10;;;;;;5074642;28;20044;-82
2021/04/26 02:13:05;;;;;;;12.00;5.70;;;10.10;51.90;;;;;;5063920;28;20119;-83
2021/04/26 02:15:32;;;;;;;11.47;6.13;;;10.10;51.80;;;;;;5051894;28;20416;-83
2021/04/26 02:17:58;;;;;;;10.80;6.80;;;10.10;51.90;;;;;;5034663;28;20040;-82
2021/04/26 02:20:24;;;;;;;12.90;6.07;;;10.00;52.00;;;;;;5032741;28;20036;-82
2021/04/26 02:22:52;;;;;;;11.37;6.30;;;10.00;52.30;;;;;;5052035;28;20033;-82
2021/04/26 02:25:18;;;;;;;9.63;5.63;;;10.00;52.30;;;;;;5034351;28;20128;-82
2021/04/26 02:27:45;;;;;;;9.37;5.57;;;9.90;52.30;;;;;;5034139;28;20119;-80
2021/04/26 02:30:12;;;;;;;9.17;5.53;;;9.90;52.50;;;;;;5037929;28;20069;-81
2021/04/26 02:32:57;;;;;;;9.77;5.67;;;9.80;52.70;;;;;;5052218;28;20037;-81
2021/04/26 02:35:39;;;;;;;9.73;6.10;;;9.80;53.00;;;;;;5045614;28;20473;-81
2021/04/26 02:38:08;;;;;;;11.27;6.35;;;9.90;53.00;;;;;;5033621;28;20115;-81
2021/04/26 02:40:43;;;;;;;11.27;6.17;;;9.90;52.70;;;;;;5051592;28;20052;-80
2021/04/26 02:43:10;;;;;;;7.80;6.00;;;10.00;52.60;;;;;;5033988;28;20124;-81
2021/04/26 02:45:40;;;;;;;10.47;6.07;;;9.90;52.40;;;;;;5033313;28;20472;-80
2021/04/26 02:48:07;;;;;;;13.57;5.80;;;9.80;52.60;;;;;;5033542;28;20094;-80
2021/04/26 02:50:34;;;;;;;9.67;5.77;;;9.80;52.70;;;;;;5046117;28;20040;-81
2021/04/26 02:53:00;;;;;;;12.77;5.73;;;9.80;52.80;;;;;;5049605;28;20021;-82
2021/04/26 02:55:27;;;;;;;11.43;5.73;;;9.70;52.80;;;;;;5051780;28;20674;-84
2021/04/26 02:57:55;;;;;;;9.83;6.27;;;9.60;52.90;;;;;;5036165;28;20397;-82
2021/04/26 03:00:23;;;;;;;14.10;5.67;;;9.60;53.10;;;;;;5033298;28;20048;-82
2021/04/26 03:02:59;;;;;;;13.70;6.27;;;9.50;53.10;;;;;;5048037;28;20028;-83
2021/04/26 03:05:29;;;;;;;10.27;5.37;;;9.50;53.30;;;;;;5036971;28;20082;-82
2021/04/26 03:07:55;;;;;;;9.10;5.27;;;9.60;53.30;;;;;;5032171;28;20116;-82
2021/04/26 03:10:27;;;;;;;9.13;5.73;;;9.60;53.30;;;;;;5030196;28;20112;-85
2021/04/26 03:12:53;;;;;;;8.60;5.97;;;9.60;53.30;;;;;;5034325;28;20041;-82
2021/04/26 03:15:24;;;;;;;8.87;5.70;;;9.50;53.10;;;;;;5034946;28;20033;-82
2021/04/26 03:17:54;;;;;;;11.37;5.90;;;9.50;53.40;;;;;;5037619;28;20091;-82
2021/04/26 03:20:21;;;;;;;11.37;6.43;;;9.40;53.50;;;;;;5030849;28;20048;-82
2021/04/26 03:22:48;;;;;;;8.87;5.73;;;9.40;53.70;;;;;;5035825;28;20025;-84
2021/04/26 03:25:19;;;;;;;11.67;5.93;;;9.30;53.70;;;;;;5051293;28;20029;-83
2021/04/26 03:27:46;;;;;;;9.50;5.63;;;9.30;53.70;;;;;;5035119;28;20078;-83
2021/04/26 03:30:15;;;;;;;12.67;6.70;;;9.30;53.80;;;;;;5048533;28;20025;-83
2021/04/26 03:32:43;;;;;;;12.67;6.83;;;9.20;54.10;;;;;;5047734;28;20031;-82
2021/04/26 03:35:13;;;;;;;10.03;6.47;;;9.20;54.10;;;;;;5048008;28;20029;-83
2021/04/26 03:37:40;;;;;;;10.77;6.73;;;9.10;54.30;;;;;;5052387;28;20061;-83
2021/04/26 03:40:07;;;;;;;16.80;6.37;;;9.10;54.70;;;;;;5035337;28;20021;-83
2021/04/26 03:42:33;;;;;;;10.73;6.47;;;9.10;54.80;;;;;;5030311;28;20068;-82
2021/04/26 03:45:06;;;;;;;9.53;6.13;;;9.00;54.70;;;;;;5033426;28;20440;-85
2021/04/26 03:47:32;;;;;;;11.00;6.50;;;9.00;54.70;;;;;;5033631;28;20179;-82
2021/04/26 03:50:02;;;;;;;10.83;6.77;;;9.00;54.80;;;;;;5035008;28;20166;-84
2021/04/26 03:52:28;;;;;;;9.37;5.73;;;9.00;55.00;;;;;;5028425;28;20037;-82
2021/04/26 03:54:54;;;;;;;9.63;6.53;;;9.00;55.00;;;;;;5028767;28;20839;-82
2021/04/26 03:57:19;;;;;;;12.17;6.03;;;9.00;55.20;;;;;;5032001;28;20037;-83
2021/04/26 03:59:45;;;;;;;10.53;6.50;;;9.00;55.20;;;;;;5030560;28;20168;-83
2021/04/26 04:02:11;;;;;;;9.37;6.13;;;9.00;55.30;;;;;;5032997;28;20059;-83
2021/04/26 04:04:37;;;;;;;8.13;5.43;;;9.00;55.10;;;;;;5051871;28;20036;-83
2021/04/26 04:07:03;;;;;;;10.20;6.50;;;9.00;55.10;;;;;;5032487;28;20480;-83
2021/04/26 04:09:28;;;;;;;10.57;6.67;;;9.00;55.10;;;;;;5032241;28;20067;-83
2021/04/26 04:11:54;;;;;;;14.93;6.57;;;9.00;55.10;;;;;;5033758;28;20028;-83
2021/04/26 04:14:20;;;;;;;12.97;5.97;;;8.90;55.10;;;;;;5047327;28;20079;-83
2021/04/26 04:16:46;;;;;;;16.93;7.00;;;8.90;55.10;;;;;;5033842;28;20111;-83
2021/04/26 04:19:11;;;;;;;13.23;8.83;;;8.80;55.20;;;;;;5032390;28;20457;-82
2021/04/26 04:21:37;;;;;;;25.93;14.80;;;8.70;55.40;;;;;;5042390;28;20033;-82
2021/04/26 04:24:03;;;;;;;14.80;9.00;;;8.70;55.80;;;;;;5045930;28;20074;-83
2021/04/26 04:26:30;;;;;;;14.10;6.77;;;8.60;56.00;;;;;;5029095;28;20021;-83
2021/04/26 04:28:56;;;;;;;13.17;6.07;;;8.70;56.10;;;;;;5030369;28;20111;-82
2021/04/26 04:31:21;;;;;;;25.07;9.27;;;8.60;55.90;;;;;;5049484;28;20100;-83
2021/04/26 04:33:47;;;;;;;13.43;8.13;;;8.70;55.90;;;;;;5030266;28;20056;-86
2021/04/26 04:36:27;;;;;;;15.33;7.63;;;8.70;55.70;;;;;;5032327;28;20444;-83
2021/04/26 04:38:52;;;;;;;13.23;7.53;;;8.80;56.00;;;;;;5031800;28;20156;-82
2021/04/26 04:41:18;;;;;;;14.13;7.90;;;8.80;55.70;;;;;;5046269;28;20120;-83
2021/04/26 04:43:44;;;;;;;16.17;8.13;;;8.90;55.60;;;;;;5031028;28;20108;-83
2021/04/26 04:46:10;;;;;;;12.47;6.97;;;9.00;55.50;;;;;;5030558;28;20021;-83
2021/04/26 04:48:35;;;;;;;12.77;7.67;;;9.00;55.50;;;;;;5031187;28;20124;-83
2021/04/26 04:51:01;;;;;;;11.53;6.33;;;9.10;55.40;;;;;;5031546;28;20052;-83
2021/04/26 04:53:27;;;;;;;12.17;6.03;;;9.10;55.20;;;;;;5032277;28;20036;-83
2021/04/26 04:55:53;;;;;;;15.13;6.97;;;9.20;55.20;;;;;;5034310;28;20017;-83
2021/04/26 04:58:18;;;;;;;13.00;6.30;;;9.20;55.10;;;;;;5030212;28;20121;-83
2021/04/26 05:00:44;;;;;;;12.77;6.00;;;9.20;55.00;;;;;;5034261;28;20032;-83
2021/04/26 05:03:10;;;;;;;10.50;5.80;;;9.30;54.90;;;;;;5032757;28;20029;-83
2021/04/26 05:05:35;;;;;;;16.50;6.13;;;9.30;54.70;;;;;;5052219;28;20082;-83
2021/04/26 05:08:01;;;;;;;10.90;6.00;;;9.30;54.60;;;;;;5033993;28;20392;-83
2021/04/26 05:10:27;;;;;;;7.70;5.90;;;9.40;54.50;;;;;;5031979;28;20040;-82
2021/04/26 05:12:53;;;;;;;19.83;6.90;;;9.40;54.50;;;;;;5032753;28;20254;-83
2021/04/26 05:15:19;;;;;;;20.70;7.23;;;9.40;54.50;;;;;;5036298;28;20033;-83
2021/04/26 05:17:45;;;;;;;15.20;8.10;;;9.50;54.50;;;;;;5033296;28;20401;-83
2021/04/26 05:20:12;;;;;;;14.33;8.87;;;9.50;54.60;;;;;;5035317;28;20057;-83
2021/04/26 05:22:38;;;;;;;23.63;9.80;;;9.50;54.60;;;;;;5035930;28;20055;-83
2021/04/26 05:25:06;;;;;;;14.13;8.43;;;9.50;55.00;;;;;;5050857;28;20029;-83
2021/04/26 05:27:32;;;;;;;12.93;8.00;;;9.50;55.60;;;;;;5034824;28;20029;-83
2021/04/26 05:29:58;;;;;;;16.33;8.43;;;9.40;55.60;;;;;;5029770;28;20025;-83
2021/04/26 05:32:23;;;;;;;14.93;8.40;;;9.50;55.80;;;;;;5035528;28;20144;-83
2021/04/26 05:34:49;;;;;;;14.60;7.73;;;9.50;55.90;;;;;;5035409;28;20029;-83
2021/04/26 05:37:15;;;;;;;17.97;8.07;;;9.50;55.80;;;;;;5036038;28;20033;-83
2021/04/26 05:39:41;;;;;;;13.83;8.50;;;9.60;56.00;;;;;;5016325;28;20041;-83
2021/04/26 05:42:07;;;;;;;22.43;9.30;;;9.60;56.00;;;;;;5047713;28;20048;-84
2021/04/26 05:44:33;;;;;;;13.10;7.57;;;9.60;55.80;;;;;;5041905;28;20028;-82
2021/04/26 05:46:59;;;;;;;12.77;8.30;;;9.60;55.90;;;;;;5049692;28;20056;-82
2021/04/26 05:49:25;;;;;;;11.37;8.50;;;9.60;55.80;;;;;;5028239;28;20060;-82
2021/04/26 05:51:51;;;;;;;13.70;8.47;;;9.60;55.90;;;;;;5035444;28;20032;-82
2021/04/26 05:54:17;;;;;;;22.47;10.90;;;9.60;56.10;;;;;;5035055;28;20032;-82
2021/04/26 05:56:43;;;;;;;18.40;8.73;;;9.70;56.00;;;;;;5036040;28;20033;-82
2021/04/26 05:59:09;;;;;;;20.37;9.67;;;9.80;56.10;;;;;;5045574;28;20476;-82
2021/04/26 06:01:35;;;;;;;13.47;7.93;;;9.80;56.00;;;;;;5035610;28;20036;-81
2021/04/26 06:04:01;;;;;;;15.23;7.60;;;9.90;55.80;;;;;;5026597;28;20033;-82
2021/04/26 06:06:27;;;;;;;18.77;8.57;;;9.90;55.70;;;;;;5053330;28;20013;-82
2021/04/26 06:08:53;;;;;;;20.50;8.93;;;10.00;55.70;;;;;;5034969;28;20020;-82
2021/04/26 06:11:19;;;;;;;14.63;8.20;;;10.00;55.60;;;;;;5051291;28;20045;-83
2021/04/26 06:13:45;;;;;;;13.67;8.67;;;10.10;55.60;;;;;;5029502;28;20071;-82
2021/04/26 06:16:11;;;;;;;11.77;7.60;;;10.10;55.70;;;;;;5034518;28;20052;-82
2021/04/26 06:18:37;;;;;;;18.83;8.53;;;10.10;55.60;;;;;;5035368;28;20021;-82
2021/04/26 06:21:03;;;;;;;21.63;9.03;;;10.20;55.50;;;;;;5052978;28;20036;-82
2021/04/26 06:23:28;;;;;;;18.43;9.47;;;10.20;55.50;;;;;;5044591;28;20029;-82
2021/04/26 06:25:54;;;;;;;16.43;9.07;;;10.20;55.40;;;;;;5034373;28;20083;-82
2021/04/26 06:28:20;;;;;;;17.97;9.90;;;10.20;55.40;;;;;;5034494;28;20029;-82
2021/04/26 06:30:47;;;;;;;20.20;9.20;;;10.20;55.90;;;;;;5051155;28;20025;-82
2021/04/26 06:33:16;;;;;;;16.37;9.80;;;10.20;55.30;;;;;;5047370;28;20025;-82
2021/04/26 06:36:00;;;;;;;20.53;9.23;;;10.30;55.30;;;;;;5048514;28;20453;-82
2021/04/26 06:38:29;;;;;;;28.53;9.93;;;10.30;55.20;;;;;;5033019;28;20485;-82
2021/04/26 06:40:55;;;;;;;17.83;8.80;;;10.40;55.20;;;;;;5034677;28;20531;-82
2021/04/26 06:43:20;;;;;;;13.80;8.67;;;10.40;55.20;;;;;;5035207;28;20037;-81
2021/04/26 06:45:46;;;;;;;18.60;9.43;;;10.40;55.20;;;;;;5026673;28;20039;-82
2021/04/26 06:48:16;;;;;;;16.40;9.37;;;10.40;55.10;;;;;;5027744;28;20048;-82
2021/04/26 06:50:43;;;;;;;21.27;9.83;;;10.40;55.20;;;;;;5029662;28;20388;-82
2021/04/26 06:53:09;;;;;;;18.53;9.77;;;10.40;55.10;;;;;;5026153;28;20036;-82
2021/04/26 06:55:36;;;;;;;17.43;9.00;;;10.50;55.10;;;;;;5030633;28;20045;-81
2021/04/26 06:58:02;;;;;;;18.53;9.50;;;10.50;55.00;;;;;;5051811;28;20177;-83
2021/04/26 07:00:28;;;;;;;20.17;8.87;;;10.60;54.80;;;;;;5027732;28;20029;-82
2021/04/26 07:02:55;;;;;;;13.07;8.50;;;10.60;54.50;;;;;;5049635;28;20094;-82
2021/04/26 07:05:21;;;;;;;23.67;8.90;;;10.60;54.50;;;;;;5034464;28;20048;-82
2021/04/26 07:07:47;;;;;;;17.43;8.90;;;10.60;54.60;;;;;;5050701;28;20036;-82
2021/04/26 07:10:14;;;;;;;13.83;8.30;;;10.70;54.50;;;;;;5028850;28;20037;-82
2021/04/26 07:12:40;;;;;;;20.27;8.53;;;10.80;54.40;;;;;;5031576;28;20040;-82
2021/04/26 07:15:08;;;;;;;19.30;9.23;;;10.70;54.40;;;;;;5033771;28;20091;-82
2021/04/26 07:17:37;;;;;;;18.80;9.13;;;10.70;54.40;;;;;;5033551;28;20071;-82
2021/04/26 07:20:08;;;;;;;19.70;9.30;;;10.70;54.60;;;;;;5035907;28;20113;-82
2021/04/26 07:22:34;;;;;;;16.50;8.70;;;10.80;54.70;;;;;;5037434;28;20041;-82
2021/04/26 07:25:00;;;;;;;17.63;8.37;;;10.80;54.60;;;;;;5033665;28;20439;-82
2021/04/26 07:27:26;;;;;;;23.57;8.23;;;10.90;54.50;;;;;;5051700;28;20047;-82
2021/04/26 07:29:52;;;;;;;21.40;8.60;;;10.90;54.40;;;;;;5033464;28;20021;-82
2021/04/26 07:32:24;;;;;;;16.10;8.40;;;11.00;54.20;;;;;;5033502;28;20060;-82
2021/04/26 07:34:50;;;;;;;14.80;8.10;;;11.00;54.20;;;;;;5032090;28;20033;-82
2021/04/26 07:37:16;;;;;;;15.13;8.23;;;11.00;54.30;;;;;;5039299;28;20098;-82
2021/04/26 07:39:41;;;;;;;15.43;9.10;;;11.10;54.20;;;;;;5045084;28;20025;-83
2021/04/26 07:42:08;;;;;;;16.57;8.60;;;11.20;54.00;;;;;;5031058;28;20035;-83
2021/04/26 07:44:33;;;;;;;16.40;7.27;;;11.20;54.00;;;;;;5025372;28;20021;-82
2021/04/26 07:46:59;;;;;;;14.63;7.57;;;11.20;54.10;;;;;;5034202;28;20090;-82
2021/04/26 07:49:26;;;;;;;14.97;8.23;;;11.20;54.10;;;;;;5050108;28;20442;-82
2021/04/26 07:51:52;;;;;;;13.73;7.77;;;11.30;54.30;;;;;;5033952;28;20029;-82
2021/04/26 07:54:18;;;;;;;12.77;6.87;;;11.40;53.50;;;;;;5046400;28;20036;-83
2021/04/26 07:56:44;;;;;;;16.97;7.63;;;11.30;53.20;;;;;;5023424;28;20052;-82
2021/04/26 07:59:09;;;;;;;14.37;7.33;;;11.40;53.30;;;;;;5036663;28;20025;-82
2021/04/26 08:01:35;;;;;;;10.63;6.80;;;11.50;53.10;;;;;;5031226;28;20032;-82
2021/04/26 08:04:01;;;;;;;16.40;7.87;;;11.50;52.80;;;;;;5032051;28;20021;-82
2021/04/26 08:06:26;;;;;;;12.93;7.83;;;11.60;52.60;;;;;;5050562;28;20025;-83
2021/04/26 08:08:52;;;;;;;16.17;8.17;;;11.60;52.40;;;;;;5030281;28;20120;-83
2021/04/26 08:11:18;;;;;;;13.70;7.63;;;11.70;52.20;;;;;;5028542;28;20401;-83
2021/04/26 08:13:44;;;;;;;14.63;8.13;;;11.70;52.10;;;;;;5025729;28;20547;-82
2021/04/26 08:16:10;;;;;;;12.13;7.00;;;11.70;52.10;;;;;;5030884;28;20473;-83
2021/04/26 08:18:35;;;;;;;17.20;8.27;;;11.90;52.00;;;;;;5030603;28;20036;-83
2021/04/26 08:21:02;;;;;;;13.43;7.77;;;12.10;51.80;;;;;;5029861;28;20018;-83
2021/04/26 08:23:28;;;;;;;14.10;8.03;;;12.20;51.60;;;;;;5030907;28;20635;-82
2021/04/26 08:25:54;;;;;;;17.30;9.20;;;12.30;51.40;;;;;;5030095;28;20032;-83
2021/04/26 08:28:20;;;;;;;19.93;7.33;;;12.40;51.30;;;;;;5029624;28;20029;-82
2021/04/26 08:30:47;;;;;;;15.80;7.47;;;12.50;51.50;;;;;;5033870;28;20056;-82
2021/04/26 08:33:13;;;;;;;12.33;7.70;;;12.60;50.60;;;;;;5026633;28;20450;-83
2021/04/26 08:35:39;;;;;;;18.57;8.53;;;12.50;50.50;;;;;;5034025;28;20105;-83
2021/04/26 08:38:04;;;;;;;13.10;8.87;;;12.60;50.60;;;;;;5032450;28;20029;-83
2021/04/26 08:40:30;;;;;;;13.23;7.07;;;12.70;50.50;;;;;;5033330;28;21548;-83
2021/04/26 08:43:02;;;;;;;12.50;6.50;;;12.80;50.90;;;;;;5044886;28;20037;-83
2021/04/26 08:45:28;;;;;;;14.57;7.00;;;12.90;50.10;;;;;;5033445;28;20028;-83
2021/04/26 08:47:54;;;;;;;9.90;6.90;;;13.00;49.70;;;;;;5033669;28;20029;-83
2021/04/26 08:50:21;;;;;;;15.43;7.60;;;13.00;49.50;;;;;;5035035;28;20389;-83
2021/04/26 08:52:46;;;;;;;10.80;6.90;;;13.00;49.20;;;;;;5034743;28;20033;-83
2021/04/26 08:55:12;;;;;;;12.90;5.93;;;13.00;49.00;;;;;;5034091;28;20079;-83
2021/04/26 08:57:38;;;;;;;11.40;6.83;;;13.10;48.90;;;;;;5033044;28;20044;-83
2021/04/26 09:00:06;;;;;;;12.87;6.20;;;13.10;48.60;;;;;;5033097;28;20032;-83
2021/04/26 09:02:46;;;;;;;11.97;6.70;;;13.10;48.60;;;;;;5024394;28;20029;-83
2021/04/26 09:05:43;;;;;;;12.87;6.67;;;13.10;48.40;;;;;;5033265;28;20044;-82
2021/04/26 09:08:12;;;;;;;15.17;6.40;;;13.10;48.50;;;;;;5032996;28;20026;-81
2021/04/26 09:10:45;;;;;;;10.57;6.37;;;13.20;48.30;;;;;;5032677;28;20409;-82
2021/04/26 09:13:29;;;;;;;12.32;6.28;;;13.30;48.10;;;;;;5033247;28;20025;-82
2021/04/26 09:16:10;;;;;;;9.80;5.77;;;13.30;47.80;;;;;;5025160;28;20028;-82
2021/04/26 09:18:51;;;;;;;9.33;6.33;;;13.30;47.80;;;;;;5033169;28;20544;-82
2021/04/26 09:21:27;;;;;;;14.90;6.33;;;13.40;47.20;;;;;;5032757;28;20592;-82
2021/04/26 09:24:14;;;;;;;10.83;6.20;;;13.40;47.10;;;;;;5032126;28;20013;-83
2021/04/26 09:26:42;;;;;;;14.10;6.30;;;13.50;46.80;;;;;;5033806;28;20108;-83
2021/04/26 09:29:12;;;;;;;9.07;5.60;;;13.50;46.80;;;;;;5032715;28;20033;-83
2021/04/26 09:31:38;;;;;;;11.90;6.83;;;13.50;46.60;;;;;;5030000;28;20022;-82
2021/04/26 09:34:04;;;;;;;17.60;6.80;;;13.60;46.70;;;;;;5031353;28;20033;-82
2021/04/26 09:36:33;;;;;;;14.23;6.53;;;13.70;46.80;;;;;;5018802;28;20026;-82
2021/04/26 09:39:04;;;;;;;7.90;5.73;;;13.70;46.50;;;;;;5030592;28;20025;-82
2021/04/26 09:41:37;;;;;;;13.03;5.63;;;13.80;46.50;;;;;;5033341;28;20053;-83
2021/04/26 09:44:02;;;;;;;14.40;6.37;;;13.90;45.90;;;;;;5024815;28;20029;-83
2021/04/26 09:46:46;;;;;;;12.90;5.27;;;13.90;45.90;;;;;;5032694;28;20029;-83
2021/04/26 09:49:20;;;;;;;10.17;4.80;;;14.10;45.70;;;;;;5026047;28;20052;-82
2021/04/26 09:52:07;;;;;;;10.60;5.30;;;14.10;45.60;;;;;;5033910;28;20030;-83
2021/04/26 09:54:39;;;;;;;7.33;4.23;;;14.20;45.30;;;;;;5031171;28;20026;-82
2021/04/26 09:57:05;;;;;;;9.67;4.87;;;14.20;45.20;;;;;;5037862;28;20085;-82
2021/04/26 09:59:30;;;;;;;10.20;5.80;;;14.30;45.00;;;;;;5043919;28;20037;-83
2021/04/26 10:01:56;;;;;;;7.70;4.97;;;14.20;44.40;;;;;;5032463;28;20034;-83
2021/04/26 10:04:22;;;;;;;11.93;6.20;;;14.30;44.50;;;;;;5027021;28;20053;-83
2021/04/26 10:06:48;;;;;;;9.23;5.87;;;14.40;44.10;;;;;;5031919;28;20017;-83
2021/04/26 10:09:14;;;;;;;8.67;5.40;;;14.60;43.90;;;;;;5032857;28;20091;-83
2021/04/26 10:11:40;;;;;;;14.53;5.90;;;14.60;43.60;;;;;;5036073;28;20083;-83
2021/04/26 10:14:11;;;;;;;8.30;5.40;;;14.70;43.40;;;;;;5035414;28;20550;-82
2021/04/26 10:16:50;;;;;;;9.70;5.73;;;14.70;43.20;;;;;;5045543;28;20381;-83
2021/04/26 10:19:16;;;;;;;9.03;6.40;;;14.70;43.30;;;;;;5045314;28;20025;-82
2021/04/26 10:21:55;;;;;;;11.83;6.47;;;14.60;43.30;;;;;;5035785;28;20087;-83
2021/04/26 10:24:24;;;;;;;9.90;5.73;;;14.60;43.20;;;;;;5029280;28;20088;-82
2021/04/26 10:27:06;;;;;;;12.60;5.57;;;14.70;43.50;;;;;;5035456;28;20078;-83
2021/04/26 10:29:37;;;;;;;12.38;6.07;;;14.70;43.20;;;;;;5036871;28;20476;-83
2021/04/26 10:32:06;;;;;;;9.90;6.57;;;14.80;43.20;;;;;;5054481;28;20132;-82
2021/04/26 10:34:35;;;;;;;14.20;6.43;;;14.80;43.20;;;;;;5053808;28;20488;-83
2021/04/26 10:37:04;;;;;;;11.63;5.90;;;14.90;43.00;;;;;;5040623;28;20030;-82
2021/04/26 10:39:33;;;;;;;11.33;4.97;;;14.90;43.00;;;;;;5033026;28;20025;-82
2021/04/26 10:42:03;;;;;;;11.30;5.60;;;15.20;43.10;;;;;;5034352;28;20025;-82
2021/04/26 10:44:41;;;;;;;11.23;6.37;;;15.40;42.90;;;;;;5029771;28;20029;-82
2021/04/26 10:47:20;;;;;;;9.77;5.40;;;15.40;42.60;;;;;;5034305;28;20098;-83
2021/04/26 10:49:48;;;;;;;8.40;5.03;;;15.60;42.60;;;;;;5026696;28;20047;-83
2021/04/26 10:52:35;;;;;;;11.30;5.33;;;15.70;42.70;;;;;;5034087;28;20059;-82
2021/04/26 10:55:41;;;;;;;11.30;6.50;;;15.70;42.20;;;;;;5053543;28;20476;-83
2021/04/26 10:58:25;;;;;;;12.07;5.70;;;15.70;42.20;;;;;;5027640;28;20048;-82
2021/04/26 11:00:50;;;;;;;14.33;6.00;;;15.70;42.00;;;;;;5047963;28;20029;-82
2021/04/26 11:03:16;;;;;;;13.37;6.20;;;15.70;41.80;;;;;;5036058;28;20039;-82
2021/04/26 11:05:44;;;;;;;14.17;5.77;;;15.80;41.90;;;;;;5040350;28;20029;-83
2021/04/26 11:11:20;;;;;;;9.83;5.87;;;16.00;41.00;;;;;;5049028;28;20400;-85
2021/04/26 11:13:59;;;;;;;10.30;6.80;;;16.20;41.10;;;;;;5035876;28;20045;-84
2021/04/26 11:16:32;;;;;;;6.80;5.27;;;16.40;41.00;;;;;;5028713;28;20571;-84
2021/04/26 11:18:58;;;;;;;11.70;5.95;;;16.60;40.70;;;;;;5033152;28;20026;-84
2021/04/26 11:21:47;;;;;;;7.57;6.03;;;16.70;40.70;;;;;;5033670;28;20883;-84
2021/04/26 11:24:25;;;;;;;13.38;6.95;;;16.90;40.00;;;;;;5053016;28;20017;-84
2021/04/26 11:27:09;;;;;;;13.98;6.57;;;16.90;40.10;;;;;;5037778;28;20017;-84
2021/04/26 11:29:55;;;;;;;13.73;6.38;;;16.90;39.90;;;;;;5036671;28;20029;-84
2021/04/26 11:32:23;;;;;;;10.57;6.00;;;16.90;39.80;;;;;;5040523;28;20021;-85
2021/04/26 11:34:49;;;;;;;10.77;6.00;;;17.10;39.60;;;;;;5034943;28;20024;-84
2021/04/26 11:37:22;;;;;;;9.18;6.78;;;17.20;39.50;;;;;;5037134;28;20115;-84
2021/04/26 11:39:50;;;;;;;9.45;6.55;;;17.40;39.80;;;;;;5032739;28;20548;-84
2021/04/26 11:42:21;;;;;;;13.85;6.95;;;17.60;39.70;;;;;;5038769;28;20029;-84
2021/04/26 11:44:47;;;;;;;13.30;7.40;;;17.70;39.70;;;;;;5038734;28;20073;-84
2021/04/26 11:47:16;;;;;;;12.88;7.03;;;17.80;39.50;;;;;;5049045;28;20060;-84
2021/04/26 11:49:44;;;;;;;11.73;7.38;;;17.90;39.20;;;;;;5037715;28;20040;-84
2021/04/26 11:52:18;;;;;;;13.65;7.25;;;17.90;38.80;;;;;;5038092;28;20036;-84
2021/04/26 11:54:47;;;;;;;10.75;6.25;;;18.00;38.70;;;;;;5038544;28;20078;-84
2021/04/26 11:57:16;;;;;;;11.57;6.85;;;18.10;38.50;;;;;;5027344;28;20493;-84
2021/04/26 11:59:59;;;;;;;13.10;5.78;;;18.20;38.50;;;;;;5052995;28;20111;-84
2021/04/26 12:02:38;;;;;;;13.10;7.38;;;18.30;38.20;;;;;;5034939;28;20029;-84
2021/04/26 12:05:10;;;;;;;8.40;6.25;;;18.40;37.90;;;;;;5054093;28;20040;-85
2021/04/26 12:07:37;;;;;;;9.77;5.97;;;18.40;38.00;;;;;;5038535;28;20028;-84
2021/04/26 12:10:11;;;;;;;14.32;7.00;;;18.50;38.00;;;;;;5037211;28;20041;-84
2021/04/26 12:12:37;;;;;;;12.35;7.07;;;18.50;37.80;;;;;;5037046;28;20052;-84
2021/04/26 12:15:06;;;;;;;14.75;7.18;;;18.60;37.30;;;;;;5026643;28;20036;-84
2021/04/26 12:17:47;;;;;;;11.60;5.97;;;18.60;37.50;;;;;;5031318;28;20539;-84
2021/04/26 12:20:21;;;;;;;10.48;6.78;;;18.80;37.50;;;;;;5036768;28;20112;-84
2021/04/26 12:22:50;;;;;;;13.20;6.57;;;18.90;37.30;;;;;;5035764;28;20044;-84
2021/04/26 12:25:18;;;;;;;9.13;6.10;;;19.00;37.20;;;;;;5053873;28;20430;-85
2021/04/26 12:27:44;;;;;;;9.40;6.68;;;19.10;37.30;;;;;;5035007;28;20117;-85
2021/04/26 12:30:10;;;;;;;11.77;7.03;;;19.10;37.00;;;;;;5054083;28;20017;-85
2021/04/26 12:32:36;;;;;;;9.80;6.47;;;19.00;36.80;;;;;;5037712;28;20036;-84
2021/04/26 12:35:04;;;;;;;12.23;7.25;;;18.90;36.80;;;;;;5035527;28;20029;-84
2021/04/26 12:37:32;;;;;;;9.68;6.40;;;18.90;36.90;;;;;;5036290;28;20114;-84
2021/04/26 12:40:09;;;;;;;10.82;6.78;;;18.90;37.00;;;;;;5033981;28;20053;-84
2021/04/26 12:42:35;;;;;;;16.73;7.43;;;19.00;36.80;;;;;;5045990;28;20025;-84
2021/04/26 12:45:12;;;;;;;10.48;6.38;;;19.00;36.30;;;;;;5052282;28;20472;-85
2021/04/26 12:47:55;;;;;;;14.68;7.13;;;19.00;36.10;;;;;;5030285;28;20659;-84
2021/04/26 12:50:25;;;;;;;10.60;5.93;;;19.10;36.00;;;;;;5052893;28;20025;-84
2021/04/26 12:53:05;;;;;;;8.07;5.30;;;19.10;36.10;;;;;;5030972;28;20028;-85
2021/04/26 12:55:32;;;;;;;8.65;6.57;;;19.20;36.00;;;;;;5036737;28;20029;-84